sensor_id;sensor_type;location;lat;lon;timestamp;pressure;altitude;pressure_sealevel;temperature
18161;BMP280;9205;52.032;4.314;2023-05-16T00:01:31;102055.50;;;11.64
18161;BMP280;9205;52.032;4.314;2023-05-16T00:04:00;102060.63;;;11.60
18161;BMP280;9205;52.032;4.314;2023-05-16T00:06:28;102069.13;;;11.50
18161;BMP280;9205;52.032;4.314;2023-05-16T00:08:56;102064.91;;;11.55
18161;BMP280;9205;52.032;4.314;2023-05-16T00:11:23;102058.94;;;11.51
18161;BMP280;9205;52.032;4.314;2023-05-16T00:13:52;102066.59;;;11.48
18161;BMP280;9205;52.032;4.314;2023-05-16T00:16:19;102066.59;;;11.56
18161;BMP280;9205;52.032;4.314;2023-05-16T00:18:47;102063.16;;;11.57
18161;BMP280;9205;52.032;4.314;2023-05-16T00:21:14;102059.81;;;11.50
18161;BMP280;9205;52.032;4.314;2023-05-16T00:23:41;102061.53;;;11.44
18161;BMP280;9205;52.032;4.314;2023-05-16T00:26:09;102065.75;;;11.52
18161;BMP280;9205;52.032;4.314;2023-05-16T00:28:38;102066.59;;;11.56
18161;BMP280;9205;52.032;4.314;2023-05-16T00:31:07;102059.81;;;11.55
18161;BMP280;9205;52.032;4.314;2023-05-16T00:33:34;102059.78;;;11.49
18161;BMP280;9205;52.032;4.314;2023-05-16T00:36:01;102064.09;;;11.39
18161;BMP280;9205;52.032;4.314;2023-05-16T00:38:28;102051.38;;;11.38
18161;BMP280;9205;52.032;4.314;2023-05-16T00:40:55;102059.88;;;11.35
18161;BMP280;9205;52.032;4.314;2023-05-16T00:43:23;102062.41;;;11.34
18161;BMP280;9205;52.032;4.314;2023-05-16T00:45:50;102059.03;;;11.33
18161;BMP280;9205;52.032;4.314;2023-05-16T00:48:19;102058.16;;;11.37
18161;BMP280;9205;52.032;4.314;2023-05-16T00:50:46;102059.81;;;11.43
18161;BMP280;9205;52.032;4.314;2023-05-16T00:53:14;102060.66;;;11.48
18161;BMP280;9205;52.032;4.314;2023-05-16T00:55:41;102064.03;;;11.48
18161;BMP280;9205;52.032;4.314;2023-05-16T00:58:10;102057.25;;;11.47
18161;BMP280;9205;52.032;4.314;2023-05-16T01:00:38;102059.84;;;11.44
18161;BMP280;9205;52.032;4.314;2023-05-16T01:03:05;102055.59;;;11.48
18161;BMP280;9205;52.032;4.314;2023-05-16T01:05:34;102058.94;;;11.48
18161;BMP280;9205;52.032;4.314;2023-05-16T01:08:01;102058.97;;;11.47
18161;BMP280;9205;52.032;4.314;2023-05-16T01:10:36;102053.88;;;11.45
18161;BMP280;9205;52.032;4.314;2023-05-16T01:13:12;102053.03;;;11.48
18161;BMP280;9205;52.032;4.314;2023-05-16T01:15:51;102058.13;;;11.46
18161;BMP280;9205;52.032;4.314;2023-05-16T01:18:30;102058.19;;;11.36
18161;BMP280;9205;52.032;4.314;2023-05-16T01:21:09;102057.31;;;11.37
18161;BMP280;9205;52.032;4.314;2023-05-16T01:23:51;102058.22;;;11.30
18161;BMP280;9205;52.032;4.314;2023-05-16T01:26:22;102061.59;;;11.33
18161;BMP280;9205;52.032;4.314;2023-05-16T01:28:51;102058.19;;;11.31
18161;BMP280;9205;52.032;4.314;2023-05-16T01:31:19;102056.47;;;11.35
18161;BMP280;9205;52.032;4.314;2023-05-16T01:33:47;102056.50;;;11.36
18161;BMP280;9205;52.032;4.314;2023-05-16T01:36:23;102061.53;;;11.44
18161;BMP280;9205;52.032;4.314;2023-05-16T01:39:11;102066.66;;;11.41
18161;BMP280;9205;52.032;4.314;2023-05-16T01:41:56;102064.91;;;11.46
18161;BMP280;9205;52.032;4.314;2023-05-16T01:44:32;102060.66;;;11.48
18161;BMP280;9205;52.032;4.314;2023-05-16T01:47:08;102063.22;;;11.48
18161;BMP280;9205;52.032;4.314;2023-05-16T01:49:42;102068.31;;;11.48
18161;BMP280;9205;52.032;4.314;2023-05-16T01:52:19;102069.16;;;11.47
18161;BMP280;9205;52.032;4.314;2023-05-16T01:54:53;102063.25;;;11.40
18161;BMP280;9205;52.032;4.314;2023-05-16T01:57:27;102065.00;;;11.31
18161;BMP280;9205;52.032;4.314;2023-05-16T01:59:56;102069.25;;;11.32
18161;BMP280;9205;52.032;4.314;2023-05-16T02:02:23;102070.09;;;11.28
18161;BMP280;9205;52.032;4.314;2023-05-16T02:04:51;102070.94;;;11.27
18161;BMP280;9205;52.032;4.314;2023-05-16T02:07:18;102076.03;;;11.28
18161;BMP280;9205;52.032;4.314;2023-05-16T02:09:46;102075.22;;;11.25
18161;BMP280;9205;52.032;4.314;2023-05-16T02:12:13;102079.50;;;11.17
18161;BMP280;9205;52.032;4.314;2023-05-16T02:14:43;102070.13;;;11.25
18161;BMP280;9205;52.032;4.314;2023-05-16T02:17:10;102065.06;;;11.20
18161;BMP280;9205;52.032;4.314;2023-05-16T02:19:37;102067.63;;;11.16
18161;BMP280;9205;52.032;4.314;2023-05-16T02:22:06;102075.22;;;11.19
18161;BMP280;9205;52.032;4.314;2023-05-16T02:24:33;102079.47;;;11.15
18161;BMP280;9205;52.032;4.314;2023-05-16T02:27:01;102083.72;;;11.12
18161;BMP280;9205;52.032;4.314;2023-05-16T02:29:28;102080.34;;;11.11
18161;BMP280;9205;52.032;4.314;2023-05-16T02:31:56;102084.59;;;11.09
18161;BMP280;9205;52.032;4.314;2023-05-16T02:34:24;102083.75;;;11.10
18161;BMP280;9205;52.032;4.314;2023-05-16T02:36:51;102085.47;;;11.10
18161;BMP280;9205;52.032;4.314;2023-05-16T02:39:18;102076.94;;;11.11
18161;BMP280;9205;52.032;4.314;2023-05-16T02:41:45;102089.66;;;11.11
18161;BMP280;9205;52.032;4.314;2023-05-16T02:44:14;102082.91;;;11.11
18161;BMP280;9205;52.032;4.314;2023-05-16T02:46:41;102084.59;;;11.14
18161;BMP280;9205;52.032;4.314;2023-05-16T02:49:10;102083.72;;;11.15
18161;BMP280;9205;52.032;4.314;2023-05-16T02:51:38;102087.97;;;11.14
18161;BMP280;9205;52.032;4.314;2023-05-16T02:54:05;102090.50;;;11.14
18161;BMP280;9205;52.032;4.314;2023-05-16T02:56:34;102087.97;;;11.17
18161;BMP280;9205;52.032;4.314;2023-05-16T02:59:02;102092.22;;;11.17
18161;BMP280;9205;52.032;4.314;2023-05-16T03:01:30;102089.66;;;11.18
18161;BMP280;9205;52.032;4.314;2023-05-16T03:03:57;102093.91;;;11.16
18161;BMP280;9205;52.032;4.314;2023-05-16T03:06:26;102099.81;;;11.18
18161;BMP280;9205;52.032;4.314;2023-05-16T03:08:53;102097.31;;;11.17
18161;BMP280;9205;52.032;4.314;2023-05-16T03:11:20;102097.31;;;11.14
18161;BMP280;9205;52.032;4.314;2023-05-16T03:13:50;102093.88;;;11.18
18161;BMP280;9205;52.032;4.314;2023-05-16T03:16:17;102098.97;;;11.21
18161;BMP280;9205;52.032;4.314;2023-05-16T03:18:45;102103.19;;;11.25
18161;BMP280;9205;52.032;4.314;2023-05-16T03:21:12;102096.41;;;11.21
18161;BMP280;9205;52.032;4.314;2023-05-16T03:23:42;102104.03;;;11.24
18161;BMP280;9205;52.032;4.314;2023-05-16T03:26:09;102112.53;;;11.23
18161;BMP280;9205;52.032;4.314;2023-05-16T03:28:36;102109.13;;;11.25
18161;BMP280;9205;52.032;4.314;2023-05-16T03:31:04;102110.81;;;11.31
18161;BMP280;9205;52.032;4.314;2023-05-16T03:33:31;102112.50;;;11.32
18161;BMP280;9205;52.032;4.314;2023-05-16T03:35:58;102099.75;;;11.35
18161;BMP280;9205;52.032;4.314;2023-05-16T03:38:26;102118.41;;;11.34
18161;BMP280;9205;52.032;4.314;2023-05-16T03:40:54;102106.56;;;11.28
18161;BMP280;9205;52.032;4.314;2023-05-16T03:43:21;102114.22;;;11.28
18161;BMP280;9205;52.032;4.314;2023-05-16T03:45:48;102109.97;;;11.24
18161;BMP280;9205;52.032;4.314;2023-05-16T03:48:16;102109.94;;;11.32
18161;BMP280;9205;52.032;4.314;2023-05-16T03:50:43;102119.25;;;11.31
18161;BMP280;9205;52.032;4.314;2023-05-16T03:53:10;102115.88;;;11.28
18161;BMP280;9205;52.032;4.314;2023-05-16T03:55:37;102115.91;;;11.26
18161;BMP280;9205;52.032;4.314;2023-05-16T03:58:06;102119.28;;;11.25
18161;BMP280;9205;52.032;4.314;2023-05-16T04:00:33;102115.88;;;11.28
18161;BMP280;9205;52.032;4.314;2023-05-16T04:03:01;102115.91;;;11.25
18161;BMP280;9205;52.032;4.314;2023-05-16T04:05:29;102117.63;;;11.18
18161;BMP280;9205;52.032;4.314;2023-05-16T04:07:56;102119.31;;;11.24
18161;BMP280;9205;52.032;4.314;2023-05-16T04:10:23;102124.41;;;11.21
18161;BMP280;9205;52.032;4.314;2023-05-16T04:12:50;102126.94;;;11.22
18161;BMP280;9205;52.032;4.314;2023-05-16T04:15:19;102130.38;;;11.17
18161;BMP280;9205;52.032;4.314;2023-05-16T04:17:46;102122.72;;;11.11
18161;BMP280;9205;52.032;4.314;2023-05-16T04:20:14;102118.50;;;11.16
18161;BMP280;9205;52.032;4.314;2023-05-16T04:22:41;102125.25;;;11.18
18161;BMP280;9205;52.032;4.314;2023-05-16T04:25:09;102124.41;;;11.19
18161;BMP280;9205;52.032;4.314;2023-05-16T04:27:37;102131.19;;;11.20
18161;BMP280;9205;52.032;4.314;2023-05-16T04:30:06;102131.19;;;11.20
18161;BMP280;9205;52.032;4.314;2023-05-16T04:32:34;102131.19;;;11.25
18161;BMP280;9205;52.032;4.314;2023-05-16T04:35:02;102131.19;;;11.25
18161;BMP280;9205;52.032;4.314;2023-05-16T04:37:29;102137.97;;;11.23
18161;BMP280;9205;52.032;4.314;2023-05-16T04:39:57;102140.53;;;11.21
18161;BMP280;9205;52.032;4.314;2023-05-16T04:42:24;102136.28;;;11.22
18161;BMP280;9205;52.032;4.314;2023-05-16T04:44:51;102139.66;;;11.22
18161;BMP280;9205;52.032;4.314;2023-05-16T04:47:19;102136.25;;;11.28
18161;BMP280;9205;52.032;4.314;2023-05-16T04:49:47;102143.88;;;11.31
18161;BMP280;9205;52.032;4.314;2023-05-16T04:52:15;102142.19;;;11.33
18161;BMP280;9205;52.032;4.314;2023-05-16T04:54:42;102143.00;;;11.36
18161;BMP280;9205;52.032;4.314;2023-05-16T04:57:09;102144.66;;;11.40
18161;BMP280;9205;52.032;4.314;2023-05-16T04:59:36;102149.75;;;11.40
18161;BMP280;9205;52.032;4.314;2023-05-16T05:02:04;102155.72;;;11.38
18161;BMP280;9205;52.032;4.314;2023-05-16T05:04:32;102162.47;;;11.45
18161;BMP280;9205;52.032;4.314;2023-05-16T05:07:01;102160.75;;;11.48
18161;BMP280;9205;52.032;4.314;2023-05-16T05:09:28;102167.56;;;11.43
18161;BMP280;9205;52.032;4.314;2023-05-16T05:11:55;102171.81;;;11.46
18161;BMP280;9205;52.032;4.314;2023-05-16T05:14:22;102171.78;;;11.52
18161;BMP280;9205;52.032;4.314;2023-05-16T05:16:49;102173.47;;;11.59
18161;BMP280;9205;52.032;4.314;2023-05-16T05:19:17;102170.06;;;11.63
18161;BMP280;9205;52.032;4.314;2023-05-16T05:21:44;102173.41;;;11.68
18161;BMP280;9205;52.032;4.314;2023-05-16T05:24:12;102169.13;;;11.75
18161;BMP280;9205;52.032;4.314;2023-05-16T05:26:39;102166.53;;;11.81
18161;BMP280;9205;52.032;4.314;2023-05-16T05:29:07;102170.75;;;11.87
18161;BMP280;9205;52.032;4.314;2023-05-16T05:31:34;102181.78;;;11.93
18161;BMP280;9205;52.032;4.314;2023-05-16T05:34:02;102174.94;;;11.98
18161;BMP280;9205;52.032;4.314;2023-05-16T05:36:29;102178.31;;;12.00
18161;BMP280;9205;52.032;4.314;2023-05-16T05:38:57;102178.31;;;12.02
18161;BMP280;9205;52.032;4.314;2023-05-16T05:41:25;102180.03;;;12.01
18161;BMP280;9205;52.032;4.314;2023-05-16T05:43:53;102185.09;;;12.00
18161;BMP280;9205;52.032;4.314;2023-05-16T05:46:20;102184.25;;;12.01
18161;BMP280;9205;52.032;4.314;2023-05-16T05:48:48;102189.38;;;11.99
18161;BMP280;9205;52.032;4.314;2023-05-16T05:51:15;102188.53;;;12.00
18161;BMP280;9205;52.032;4.314;2023-05-16T05:53:43;102189.38;;;11.98
18161;BMP280;9205;52.032;4.314;2023-05-16T05:56:10;102193.56;;;12.06
18161;BMP280;9205;52.032;4.314;2023-05-16T05:58:39;102195.25;;;12.07
18161;BMP280;9205;52.032;4.314;2023-05-16T06:01:07;102191.84;;;12.07
18161;BMP280;9205;52.032;4.314;2023-05-16T06:03:34;102200.34;;;12.07
18161;BMP280;9205;52.032;4.314;2023-05-16T06:06:03;102199.50;;;12.07
18161;BMP280;9205;52.032;4.314;2023-05-16T06:08:30;102201.22;;;12.03
18161;BMP280;9205;52.032;4.314;2023-05-16T06:10:58;102207.94;;;12.18
18161;BMP280;9205;52.032;4.314;2023-05-16T06:13:25;102199.44;;;12.16
18161;BMP280;9205;52.032;4.314;2023-05-16T06:15:54;102205.41;;;12.13
18161;BMP280;9205;52.032;4.314;2023-05-16T06:18:21;102206.28;;;12.14
18161;BMP280;9205;52.032;4.314;2023-05-16T06:20:48;102203.72;;;12.12
18161;BMP280;9205;52.032;4.314;2023-05-16T06:23:16;102204.56;;;12.11
18161;BMP280;9205;52.032;4.314;2023-05-16T06:25:44;102214.72;;;12.19
18161;BMP280;9205;52.032;4.314;2023-05-16T06:28:11;102207.09;;;12.17
18161;BMP280;9205;52.032;4.314;2023-05-16T06:30:38;102209.72;;;12.04
18161;BMP280;9205;52.032;4.314;2023-05-16T06:33:07;102210.50;;;12.10
18161;BMP280;9205;52.032;4.314;2023-05-16T06:35:34;102222.34;;;12.20
18161;BMP280;9205;52.032;4.314;2023-05-16T06:38:01;102223.22;;;12.16
18161;BMP280;9205;52.032;4.314;2023-05-16T06:40:28;102223.25;;;12.12
18161;BMP280;9205;52.032;4.314;2023-05-16T06:42:55;102217.28;;;12.16
18161;BMP280;9205;52.032;4.314;2023-05-16T06:45:23;102223.22;;;12.18
18161;BMP280;9205;52.032;4.314;2023-05-16T06:47:50;102219.72;;;12.32
18161;BMP280;9205;52.032;4.314;2023-05-16T06:50:19;102223.03;;;12.42
18161;BMP280;9205;52.032;4.314;2023-05-16T06:52:46;102226.38;;;12.51
18161;BMP280;9205;52.032;4.314;2023-05-16T06:55:13;102231.47;;;12.49
18161;BMP280;9205;52.032;4.314;2023-05-16T06:57:40;102236.59;;;12.49
18161;BMP280;9205;52.032;4.314;2023-05-16T07:00:09;102233.13;;;12.56
18161;BMP280;9205;52.032;4.314;2023-05-16T07:02:36;102226.28;;;12.63
18161;BMP280;9205;52.032;4.314;2023-05-16T07:05:05;102221.91;;;12.74
18161;BMP280;9205;52.032;4.314;2023-05-16T07:07:34;102227.03;;;12.75
18161;BMP280;9205;52.032;4.314;2023-05-16T07:10:01;102230.47;;;12.70
18161;BMP280;9205;52.032;4.314;2023-05-16T07:12:29;102232.16;;;12.71
18161;BMP280;9205;52.032;4.314;2023-05-16T07:14:56;102233.00;;;12.71
18161;BMP280;9205;52.032;4.314;2023-05-16T07:17:23;102230.41;;;12.76
18161;BMP280;9205;52.032;4.314;2023-05-16T07:19:50;102242.34;;;12.75
18161;BMP280;9205;52.032;4.314;2023-05-16T07:22:17;102244.06;;;12.72
18161;BMP280;9205;52.032;4.314;2023-05-16T07:24:46;102252.53;;;12.74
18161;BMP280;9205;52.032;4.314;2023-05-16T07:27:13;102243.16;;;12.79
18161;BMP280;9205;52.032;4.314;2023-05-16T07:29:40;102243.13;;;12.83
18161;BMP280;9205;52.032;4.314;2023-05-16T07:32:07;102255.91;;;12.76
18161;BMP280;9205;52.032;4.314;2023-05-16T07:34:34;102251.66;;;12.76
18161;BMP280;9205;52.032;4.314;2023-05-16T07:37:02;102247.31;;;12.84
18161;BMP280;9205;52.032;4.314;2023-05-16T07:39:29;102249.13;;;12.73
18161;BMP280;9205;52.032;4.314;2023-05-16T07:41:58;102245.72;;;12.76
18161;BMP280;9205;52.032;4.314;2023-05-16T07:44:25;102249.97;;;12.74
18161;BMP280;9205;52.032;4.314;2023-05-16T07:46:53;102248.28;;;12.71
18161;BMP280;9205;52.032;4.314;2023-05-16T07:49:20;102262.72;;;12.75
18161;BMP280;9205;52.032;4.314;2023-05-16T07:51:48;102253.34;;;12.79
18161;BMP280;9205;52.032;4.314;2023-05-16T07:54:15;102257.56;;;12.83
18161;BMP280;9205;52.032;4.314;2023-05-16T07:56:42;102255.84;;;12.82
18161;BMP280;9205;52.032;4.314;2023-05-16T07:59:11;102252.41;;;12.92
18161;BMP280;9205;52.032;4.314;2023-05-16T08:01:38;102251.38;;;13.09
18161;BMP280;9205;52.032;4.314;2023-05-16T08:04:06;102255.56;;;13.18
18161;BMP280;9205;52.032;4.314;2023-05-16T08:06:33;102265.63;;;13.29
18161;BMP280;9205;52.032;4.314;2023-05-16T08:09:00;102270.75;;;13.29
18161;BMP280;9205;52.032;4.314;2023-05-16T08:11:28;102266.53;;;13.27
18161;BMP280;9205;52.032;4.314;2023-05-16T08:13:55;102261.44;;;13.26
18161;BMP280;9205;52.032;4.314;2023-05-16T08:16:23;102268.25;;;13.22
18161;BMP280;9205;52.032;4.314;2023-05-16T08:18:50;102265.63;;;13.29
18161;BMP280;9205;52.032;4.314;2023-05-16T08:21:18;102272.34;;;13.39
18161;BMP280;9205;52.032;4.314;2023-05-16T08:23:45;102276.56;;;13.42
18161;BMP280;9205;52.032;4.314;2023-05-16T08:26:12;102277.44;;;13.38
18161;BMP280;9205;52.032;4.314;2023-05-16T08:28:39;102278.22;;;13.46
18161;BMP280;9205;52.032;4.314;2023-05-16T08:31:06;102274.94;;;13.36
18161;BMP280;9205;52.032;4.314;2023-05-16T08:33:35;102268.22;;;13.28
18161;BMP280;9205;52.032;4.314;2023-05-16T08:36:03;102269.88;;;13.32
18161;BMP280;9205;52.032;4.314;2023-05-16T08:38:31;102269.88;;;13.33
18161;BMP280;9205;52.032;4.314;2023-05-16T08:40:58;102268.97;;;13.34
18161;BMP280;9205;52.032;4.314;2023-05-16T08:43:26;102279.16;;;13.37
18161;BMP280;9205;52.032;4.314;2023-05-16T08:45:53;102272.25;;;13.48
18161;BMP280;9205;52.032;4.314;2023-05-16T08:48:23;102267.88;;;13.58
18161;BMP280;9205;52.032;4.314;2023-05-16T08:50:52;102276.31;;;13.63
18161;BMP280;9205;52.032;4.314;2023-05-16T08:53:26;102262.66;;;13.68
18161;BMP280;9205;52.032;4.314;2023-05-16T08:55:58;102266.81;;;13.75
18161;BMP280;9205;52.032;4.314;2023-05-16T08:58:26;102275.41;;;13.68
18161;BMP280;9205;52.032;4.314;2023-05-16T09:00:55;102267.78;;;13.65
18161;BMP280;9205;52.032;4.314;2023-05-16T09:03:23;102279.56;;;13.77
18161;BMP280;9205;52.032;4.314;2023-05-16T09:05:54;102296.75;;;13.66
18161;BMP280;9205;52.032;4.314;2023-05-16T09:08:22;102279.59;;;13.72
18161;BMP280;9205;52.032;4.314;2023-05-16T09:10:50;102276.13;;;13.81
18161;BMP280;9205;52.032;4.314;2023-05-16T09:13:18;102282.88;;;13.85
18161;BMP280;9205;52.032;4.314;2023-05-16T09:15:45;102286.16;;;13.93
18161;BMP280;9205;52.032;4.314;2023-05-16T09:18:12;102284.31;;;14.05
18161;BMP280;9205;52.032;4.314;2023-05-16T09:20:43;102283.41;;;14.13
18161;BMP280;9205;52.032;4.314;2023-05-16T09:23:23;102288.56;;;14.06
18161;BMP280;9205;52.032;4.314;2023-05-16T09:25:52;102286.06;;;14.02
18161;BMP280;9205;52.032;4.314;2023-05-16T09:28:19;102272.41;;;14.06
18161;BMP280;9205;52.032;4.314;2023-05-16T09:30:47;102278.25;;;14.15
18161;BMP280;9205;52.032;4.314;2023-05-16T09:33:15;102275.41;;;14.34
18161;BMP280;9205;52.032;4.314;2023-05-16T09:35:43;102285.41;;;14.49
18161;BMP280;9205;52.032;4.314;2023-05-16T09:38:14;102291.38;;;14.51
18161;BMP280;9205;52.032;4.314;2023-05-16T09:40:44;102291.47;;;14.45
18161;BMP280;9205;52.032;4.314;2023-05-16T09:43:15;102285.47;;;14.45
18161;BMP280;9205;52.032;4.314;2023-05-16T09:45:46;102291.47;;;14.44
18161;BMP280;9205;52.032;4.314;2023-05-16T09:48:14;102286.25;;;14.50
18161;BMP280;9205;52.032;4.314;2023-05-16T09:50:47;102293.16;;;14.45
18161;BMP280;9205;52.032;4.314;2023-05-16T09:53:17;102296.09;;;14.19
18161;BMP280;9205;52.032;4.314;2023-05-16T09:55:46;102289.38;;;14.11
18161;BMP280;9205;52.032;4.314;2023-05-16T09:58:19;102293.56;;;14.18
18161;BMP280;9205;52.032;4.314;2023-05-16T10:00:46;102295.91;;;14.31
18161;BMP280;9205;52.032;4.314;2023-05-16T10:03:14;102295.63;;;14.51
18161;BMP280;9205;52.032;4.314;2023-05-16T10:05:42;102291.06;;;14.71
18161;BMP280;9205;52.032;4.314;2023-05-16T10:08:10;102292.53;;;14.84
18161;BMP280;9205;52.032;4.314;2023-05-16T10:10:38;102287.56;;;14.75
18161;BMP280;9205;52.032;4.314;2023-05-16T10:13:09;102296.25;;;14.65
18161;BMP280;9205;52.032;4.314;2023-05-16T10:15:38;102302.25;;;14.62
18161;BMP280;9205;52.032;4.314;2023-05-16T10:18:07;102293.69;;;14.66
18161;BMP280;9205;52.032;4.314;2023-05-16T10:20:40;102296.78;;;14.85
18161;BMP280;9205;52.032;4.314;2023-05-16T10:23:14;102299.47;;;14.79
18161;BMP280;9205;52.032;4.314;2023-05-16T10:25:44;102303.53;;;14.88
18161;BMP280;9205;52.032;4.314;2023-05-16T10:28:14;102294.09;;;14.92
18161;BMP280;9205;52.032;4.314;2023-05-16T10:30:44;102299.25;;;14.90
18161;BMP280;9205;52.032;4.314;2023-05-16T10:33:13;102297.59;;;14.88
18161;BMP280;9205;52.032;4.314;2023-05-16T10:35:43;102286.38;;;14.95
18161;BMP280;9205;52.032;4.314;2023-05-16T10:38:13;102284.50;;;15.06
18161;BMP280;9205;52.032;4.314;2023-05-16T10:40:41;102278.31;;;15.17
18161;BMP280;9205;52.032;4.314;2023-05-16T10:43:09;102276.28;;;15.36
18161;BMP280;9205;52.032;4.314;2023-05-16T10:45:40;102269.56;;;15.72
18161;BMP280;9205;52.032;4.314;2023-05-16T10:48:11;102272.84;;;15.80
18161;BMP280;9205;52.032;4.314;2023-05-16T10:50:40;102277.25;;;16.12
18161;BMP280;9205;52.032;4.314;2023-05-16T10:53:17;102266.19;;;16.84
18161;BMP280;9205;52.032;4.314;2023-05-16T10:55:49;102256.13;;;17.70
18161;BMP280;9205;52.032;4.314;2023-05-16T10:58:25;102255.59;;;18.70
18161;BMP280;9205;52.032;4.314;2023-05-16T11:01:21;102261.56;;;19.22
18161;BMP280;9205;52.032;4.314;2023-05-16T11:04:15;102262.34;;;19.47
18161;BMP280;9205;52.032;4.314;2023-05-16T11:07:00;102259.97;;;19.18
18161;BMP280;9205;52.032;4.314;2023-05-16T11:09:29;102262.38;;;19.23
18161;BMP280;9205;52.032;4.314;2023-05-16T11:11:59;102260.47;;;19.28
18161;BMP280;9205;52.032;4.314;2023-05-16T11:14:35;102256.00;;;19.10
18161;BMP280;9205;52.032;4.314;2023-05-16T11:17:08;102252.53;;;18.85
18161;BMP280;9205;52.032;4.314;2023-05-16T11:19:42;102270.69;;;18.55
18161;BMP280;9205;52.032;4.314;2023-05-16T11:22:24;102263.50;;;18.38
18161;BMP280;9205;52.032;4.314;2023-05-16T11:24:56;102263.53;;;18.09
18161;BMP280;9205;52.032;4.314;2023-05-16T11:27:28;102269.44;;;17.84
18161;BMP280;9205;52.032;4.314;2023-05-16T11:30:00;102271.59;;;17.38
18161;BMP280;9205;52.032;4.314;2023-05-16T11:32:41;102273.94;;;17.14
18161;BMP280;9205;52.032;4.314;2023-05-16T11:35:11;102277.56;;;17.07
18161;BMP280;9205;52.032;4.314;2023-05-16T11:37:39;102271.78;;;16.99
18161;BMP280;9205;52.032;4.314;2023-05-16T11:40:10;102273.63;;;16.94
18161;BMP280;9205;52.032;4.314;2023-05-16T11:42:39;102280.69;;;16.85
18161;BMP280;9205;52.032;4.314;2023-05-16T11:45:08;102284.59;;;16.66
18161;BMP280;9205;52.032;4.314;2023-05-16T11:47:39;102278.25;;;16.80
18161;BMP280;9205;52.032;4.314;2023-05-16T11:50:12;102279.53;;;16.98
18161;BMP280;9205;52.032;4.314;2023-05-16T11:52:42;102277.31;;;17.16
18161;BMP280;9205;52.032;4.314;2023-05-16T11:55:10;102274.72;;;17.18
18161;BMP280;9205;52.032;4.314;2023-05-16T11:57:38;102276.84;;;17.02
18161;BMP280;9205;52.032;4.314;2023-05-16T12:00:14;102271.38;;;17.14
18161;BMP280;9205;52.032;4.314;2023-05-16T12:02:43;102283.84;;;17.29
18161;BMP280;9205;52.032;4.314;2023-05-16T12:05:13;102272.03;;;17.22
18161;BMP280;9205;52.032;4.314;2023-05-16T12:07:43;102278.53;;;17.36
18161;BMP280;9205;52.032;4.314;2023-05-16T12:10:13;102266.69;;;17.61
18161;BMP280;9205;52.032;4.314;2023-05-16T12:12:44;102267.41;;;17.66
18161;BMP280;9205;52.032;4.314;2023-05-16T12:15:12;102279.38;;;17.66
18161;BMP280;9205;52.032;4.314;2023-05-16T12:17:42;102275.34;;;17.57
18161;BMP280;9205;52.032;4.314;2023-05-16T12:20:11;102281.44;;;17.55
18161;BMP280;9205;52.032;4.314;2023-05-16T12:22:39;102281.94;;;17.66
18161;BMP280;9205;52.032;4.314;2023-05-16T12:25:25;102279.63;;;17.58
18161;BMP280;9205;52.032;4.314;2023-05-16T12:27:54;102284.41;;;17.40
18161;BMP280;9205;52.032;4.314;2023-05-16T12:30:22;102286.97;;;17.40
18161;BMP280;9205;52.032;4.314;2023-05-16T12:32:57;102278.00;;;17.54
18161;BMP280;9205;52.032;4.314;2023-05-16T12:35:24;102278.44;;;17.70
18161;BMP280;9205;52.032;4.314;2023-05-16T12:37:52;102274.72;;;17.80
18161;BMP280;9205;52.032;4.314;2023-05-16T12:40:21;102280.50;;;17.88
18161;BMP280;9205;52.032;4.314;2023-05-16T12:42:49;102274.97;;;18.00
18161;BMP280;9205;52.032;4.314;2023-05-16T12:45:17;102285.44;;;17.94
18161;BMP280;9205;52.032;4.314;2023-05-16T12:47:45;102279.03;;;18.06
18161;BMP280;9205;52.032;4.314;2023-05-16T12:50:14;102287.38;;;18.14
18161;BMP280;9205;52.032;4.314;2023-05-16T12:52:51;102278.16;;;18.07
18161;BMP280;9205;52.032;4.314;2023-05-16T12:55:20;102283.78;;;18.20
18161;BMP280;9205;52.032;4.314;2023-05-16T12:57:49;102291.13;;;18.33
18161;BMP280;9205;52.032;4.314;2023-05-16T13:00:18;102284.38;;;18.29
18161;BMP280;9205;52.032;4.314;2023-05-16T13:02:46;102285.50;;;18.21
18161;BMP280;9205;52.032;4.314;2023-05-16T13:05:15;102288.91;;;18.21
18161;BMP280;9205;52.032;4.314;2023-05-16T13:07:43;102288.78;;;18.26
18161;BMP280;9205;52.032;4.314;2023-05-16T13:10:11;102282.53;;;18.34
18161;BMP280;9205;52.032;4.314;2023-05-16T13:12:40;102283.75;;;18.21
18161;BMP280;9205;52.032;4.314;2023-05-16T13:15:10;102284.38;;;18.29
18161;BMP280;9205;52.032;4.314;2023-05-16T13:17:39;102284.28;;;18.32
18161;BMP280;9205;52.032;4.314;2023-05-16T13:20:07;102293.50;;;18.39
18161;BMP280;9205;52.032;4.314;2023-05-16T13:22:36;102287.81;;;18.28
18161;BMP280;9205;52.032;4.314;2023-05-16T13:25:04;102279.47;;;18.22
18161;BMP280;9205;52.032;4.314;2023-05-16T13:27:32;102285.50;;;18.19
18161;BMP280;9205;52.032;4.314;2023-05-16T13:30:01;102289.88;;;18.17
18161;BMP280;9205;52.032;4.314;2023-05-16T13:32:29;102284.66;;;18.20
18161;BMP280;9205;52.032;4.314;2023-05-16T13:34:56;102272.22;;;18.34
18161;BMP280;9205;52.032;4.314;2023-05-16T13:37:23;102285.50;;;18.48
18161;BMP280;9205;52.032;4.314;2023-05-16T13:39:52;102285.13;;;18.33
18161;BMP280;9205;52.032;4.314;2023-05-16T13:42:20;102285.31;;;18.27
18161;BMP280;9205;52.032;4.314;2023-05-16T13:44:48;102297.50;;;18.20
18161;BMP280;9205;52.032;4.314;2023-05-16T13:47:15;102289.16;;;17.84
18161;BMP280;9205;52.032;4.314;2023-05-16T13:49:43;102296.63;;;17.93
18161;BMP280;9205;52.032;4.314;2023-05-16T13:52:10;102287.91;;;17.97
18161;BMP280;9205;52.032;4.314;2023-05-16T13:54:38;102294.66;;;18.01
18161;BMP280;9205;52.032;4.314;2023-05-16T13:57:07;102289.25;;;18.09
18161;BMP280;9205;52.032;4.314;2023-05-16T13:59:35;102284.38;;;18.29
18161;BMP280;9205;52.032;4.314;2023-05-16T14:02:02;102273.94;;;18.34
18161;BMP280;9205;52.032;4.314;2023-05-16T14:04:29;102290.53;;;18.24
18161;BMP280;9205;52.032;4.314;2023-05-16T14:06:57;102288.38;;;18.10
18161;BMP280;9205;52.032;4.314;2023-05-16T14:09:24;102290.91;;;17.82
18161;BMP280;9205;52.032;4.314;2023-05-16T14:11:51;102282.94;;;17.92
18161;BMP280;9205;52.032;4.314;2023-05-16T14:14:20;102288.97;;;18.18
18161;BMP280;9205;52.032;4.314;2023-05-16T14:16:47;102284.56;;;18.23
18161;BMP280;9205;52.032;4.314;2023-05-16T14:19:14;102292.47;;;18.16